createdAt,value
2024-01-19T00:00:26.591Z,13.50
2024-01-19T00:03:13.872Z,13.88
2024-01-19T00:06:01.254Z,12.63
2024-01-19T00:08:48.712Z,12.98
2024-01-19T00:11:37.372Z,13.20
2024-01-19T00:14:24.939Z,13.30
2024-01-19T00:17:12.136Z,12.40
2024-01-19T00:20:00.514Z,13.00
2024-01-19T00:22:48.145Z,11.45
2024-01-19T00:25:35.400Z,13.10
2024-01-19T00:28:22.594Z,12.05
2024-01-19T00:31:09.961Z,12.88
2024-01-19T00:33:57.751Z,11.15
2024-01-19T00:36:45.331Z,11.38
2024-01-19T00:39:33.614Z,11.30
2024-01-19T00:42:20.822Z,11.15
2024-01-19T00:45:12.951Z,11.93
2024-01-19T00:48:00.293Z,11.32
2024-01-19T00:50:47.591Z,11.73
2024-01-19T00:53:34.871Z,14.23
2024-01-19T00:56:23.240Z,11.23
2024-01-19T00:59:10.610Z,11.25
2024-01-19T01:01:57.814Z,12.15
2024-01-19T01:04:44.984Z,11.23
2024-01-19T01:07:32.184Z,11.07
2024-01-19T01:10:19.597Z,11.02
2024-01-19T01:13:06.999Z,10.60
2024-01-19T01:15:55.731Z,11.40
2024-01-19T01:18:43.100Z,10.57
2024-01-19T01:21:31.653Z,11.35
2024-01-19T01:24:20.383Z,10.38
2024-01-19T01:27:07.681Z,10.93
2024-01-19T01:29:55.452Z,10.63
2024-01-19T01:32:42.943Z,11.18
2024-01-19T01:35:30.483Z,9.60
2024-01-19T01:38:17.821Z,9.68
2024-01-19T01:41:05.194Z,9.82
2024-01-19T01:43:52.602Z,9.43
2024-01-19T01:46:39.924Z,9.02
2024-01-19T01:49:27.677Z,9.43
2024-01-19T01:52:15.085Z,9.65
2024-01-19T01:55:02.537Z,9.23
2024-01-19T01:57:49.989Z,10.20
2024-01-19T02:00:38.594Z,10.32
2024-01-19T02:03:27.274Z,10.50
2024-01-19T02:06:15.810Z,10.25
2024-01-19T02:09:03.525Z,10.13
2024-01-19T02:11:51.341Z,8.98
2024-01-19T02:14:38.710Z,9.10
2024-01-19T02:17:27.748Z,9.63
2024-01-19T02:20:15.628Z,9.13
2024-01-19T02:23:06.049Z,8.93
2024-01-19T02:25:55.237Z,9.35
2024-01-19T02:28:42.667Z,8.80
2024-01-19T02:31:29.909Z,9.00
2024-01-19T02:34:16.976Z,8.75
2024-01-19T02:37:05.420Z,9.25
2024-01-19T02:39:52.626Z,8.13
2024-01-19T02:42:39.944Z,7.75
2024-01-19T02:45:27.092Z,8.48
2024-01-19T02:48:14.474Z,8.35
2024-01-19T02:51:01.821Z,8.65
2024-01-19T02:53:49.171Z,8.52
2024-01-19T02:56:36.495Z,7.90
2024-01-19T02:59:23.877Z,8.32
2024-01-19T03:02:11.104Z,9.40
2024-01-19T03:04:58.383Z,7.70
2024-01-19T03:07:45.644Z,7.90
2024-01-19T03:10:32.942Z,7.85
2024-01-19T03:13:20.094Z,6.60
2024-01-19T03:16:08.273Z,6.85
2024-01-19T03:18:56.399Z,6.93
2024-01-19T03:21:45.116Z,7.57
2024-01-19T03:24:32.277Z,7.18
2024-01-19T03:27:19.483Z,7.18
2024-01-19T03:30:07.375Z,7.28
2024-01-19T03:32:54.612Z,7.05
2024-01-19T03:35:41.844Z,7.03
2024-01-19T03:38:30.678Z,6.72
2024-01-19T03:41:18.100Z,7.18
2024-01-19T03:44:05.478Z,8.68
2024-01-19T03:46:53.088Z,7.85
2024-01-19T03:49:41.273Z,7.43
2024-01-19T03:52:28.636Z,7.55
2024-01-19T03:55:18.985Z,8.52
2024-01-19T03:58:06.634Z,9.38
2024-01-19T04:00:53.788Z,7.40
2024-01-19T04:03:41.266Z,9.52
2024-01-19T04:06:28.594Z,11.10
2024-01-19T04:09:18.794Z,10.13
2024-01-19T04:12:17.479Z,9.25
2024-01-19T04:15:05.508Z,7.35
2024-01-19T04:17:53.504Z,10.23
2024-01-19T04:20:40.720Z,10.18
2024-01-19T04:23:27.917Z,9.70
2024-01-19T04:26:15.176Z,10.27
2024-01-19T04:29:03.146Z,10.65
2024-01-19T04:31:50.970Z,8.45
2024-01-19T04:34:38.179Z,9.98
2024-01-19T04:37:25.440Z,10.00
2024-01-19T04:40:12.763Z,11.85
2024-01-19T04:42:59.926Z,9.57
2024-01-19T04:45:47.187Z,11.38
2024-01-19T04:48:34.611Z,11.23
2024-01-19T04:51:21.955Z,10.35
2024-01-19T04:54:09.282Z,11.13
2024-01-19T04:56:56.587Z,10.88
2024-01-19T04:59:43.865Z,11.05
2024-01-19T05:02:34.136Z,11.27
2024-01-19T05:05:21.760Z,10.85
2024-01-19T05:08:09.068Z,11.32
2024-01-19T05:10:56.345Z,10.93
2024-01-19T05:13:44.599Z,11.82
2024-01-19T05:16:31.895Z,11.65
2024-01-19T05:19:19.104Z,9.93
2024-01-19T05:22:06.494Z,11.05
2024-01-19T05:24:53.724Z,10.52
2024-01-19T05:27:40.866Z,11.95
2024-01-19T05:30:28.097Z,10.20
2024-01-19T05:33:16.069Z,12.07
2024-01-19T05:36:03.546Z,12.23
2024-01-19T05:38:51.006Z,10.80
2024-01-19T05:41:38.335Z,13.85
2024-01-19T05:44:25.653Z,12.20
2024-01-19T05:47:13.172Z,9.88
2024-01-19T05:50:01.603Z,13.07
2024-01-19T05:52:48.907Z,14.13
2024-01-19T05:55:36.239Z,10.48
2024-01-19T05:58:23.465Z,9.60
2024-01-19T06:01:11.259Z,12.20
2024-01-19T06:04:01.870Z,14.00
2024-01-19T06:06:49.286Z,12.50
2024-01-19T06:09:37.107Z,13.30
2024-01-19T06:12:24.339Z,13.55
2024-01-19T06:15:11.713Z,13.00
2024-01-19T06:17:59.102Z,13.43
2024-01-19T06:20:46.443Z,12.90
2024-01-19T06:23:33.774Z,11.15
2024-01-19T06:26:20.988Z,12.07
2024-01-19T06:29:08.216Z,11.88
2024-01-19T06:31:55.551Z,12.75
2024-01-19T06:34:43.764Z,12.68
2024-01-19T06:37:31.045Z,13.13
2024-01-19T06:40:19.216Z,13.35
2024-01-19T06:43:06.403Z,12.80
2024-01-19T06:45:53.609Z,12.30
2024-01-19T06:48:43.213Z,12.23
2024-01-19T06:51:31.623Z,13.98
2024-01-19T06:54:19.065Z,13.43
2024-01-19T06:57:06.622Z,12.63
2024-01-19T06:59:53.955Z,12.15
2024-01-19T07:02:41.167Z,13.27
2024-01-19T07:05:28.642Z,12.63
2024-01-19T07:08:17.466Z,13.52
2024-01-19T07:11:04.984Z,13.57
2024-01-19T07:13:52.270Z,14.98
2024-01-19T07:16:44.721Z,15.13
2024-01-19T07:19:32.174Z,14.15
2024-01-19T07:22:19.560Z,13.63
2024-01-19T07:25:07.496Z,15.45
2024-01-19T07:27:54.751Z,13.85
2024-01-19T07:30:42.065Z,14.10
2024-01-19T07:33:33.162Z,15.18
2024-01-19T07:39:08.698Z,13.32
2024-01-19T07:41:56.029Z,16.35
2024-01-19T07:44:47.288Z,15.55
2024-01-19T07:47:36.911Z,16.52
2024-01-19T07:50:24.821Z,15.35
2024-01-19T07:53:12.215Z,15.00
2024-01-19T07:56:00.662Z,12.80
2024-01-19T07:58:47.899Z,16.38
2024-01-19T08:01:35.712Z,14.38
2024-01-19T08:04:22.951Z,16.30
2024-01-19T08:07:10.215Z,17.95
2024-01-19T08:09:57.448Z,16.35
2024-01-19T08:12:44.688Z,17.25
2024-01-19T08:15:31.911Z,17.02
2024-01-19T08:18:19.607Z,18.85
2024-01-19T08:21:07.258Z,16.02
2024-01-19T08:23:54.683Z,16.85
2024-01-19T08:26:42.050Z,15.27
2024-01-19T08:29:29.404Z,15.50
2024-01-19T08:32:17.095Z,17.83
2024-01-19T08:35:09.665Z,16.88
2024-01-19T08:37:59.469Z,17.05
2024-01-19T08:40:48.370Z,17.60
2024-01-19T08:43:35.792Z,20.85
2024-01-19T08:46:23.012Z,19.23
2024-01-19T08:49:10.709Z,18.02
2024-01-19T08:51:57.959Z,16.95
2024-01-19T08:54:45.258Z,18.30
2024-01-19T08:57:33.606Z,18.52
2024-01-19T09:00:21.562Z,16.92
2024-01-19T09:03:13.253Z,16.20
2024-01-19T09:08:47.764Z,18.38
2024-01-19T09:11:35.498Z,17.02
2024-01-19T09:14:23.480Z,14.55
2024-01-19T09:17:13.346Z,17.70
2024-01-19T09:20:00.904Z,17.65
2024-01-19T09:22:48.244Z,14.18
2024-01-19T09:25:35.488Z,16.25
2024-01-19T09:28:23.115Z,14.20
2024-01-19T09:31:10.364Z,14.90
2024-01-19T09:33:57.924Z,14.70
2024-01-19T09:36:45.357Z,16.52
2024-01-19T09:39:32.783Z,15.52
2024-01-19T09:42:34.991Z,12.32
2024-01-19T09:45:27.651Z,15.32
2024-01-19T09:48:24.902Z,14.52
2024-01-19T09:51:13.013Z,14.40
2024-01-19T09:54:08.663Z,12.30
2024-01-19T09:56:56.003Z,12.65
2024-01-19T09:59:44.429Z,13.15
2024-01-19T10:02:34.007Z,11.80
2024-01-19T10:05:22.942Z,10.52
2024-01-19T10:08:15.135Z,10.07
2024-01-19T10:11:09.421Z,10.32
2024-01-19T10:13:56.689Z,9.45
2024-01-19T10:16:45.791Z,8.73
2024-01-19T10:19:35.105Z,8.48
2024-01-19T10:22:29.824Z,9.07
2024-01-19T10:25:17.183Z,8.77
2024-01-19T10:28:04.748Z,8.18
2024-01-19T10:30:51.907Z,6.90
2024-01-19T10:33:53.549Z,8.07
2024-01-19T10:36:41.518Z,8.02
2024-01-19T10:39:33.044Z,8.15
2024-01-19T10:45:26.162Z,8.00
2024-01-19T10:48:28.037Z,9.57
2024-01-19T10:51:15.603Z,6.88
2024-01-19T10:54:04.021Z,7.05
2024-01-19T10:57:10.263Z,6.97
2024-01-19T10:59:57.597Z,6.85
2024-01-19T11:02:51.164Z,7.70
2024-01-19T11:05:38.477Z,7.25
2024-01-19T11:08:29.855Z,7.05
2024-01-19T11:14:10.284Z,6.70
2024-01-19T11:16:58.050Z,7.38
2024-01-19T11:19:45.374Z,7.07
2024-01-19T11:22:33.541Z,6.43
2024-01-19T11:25:37.024Z,7.40
2024-01-19T11:28:47.325Z,6.38
2024-01-19T11:31:41.728Z,7.38
2024-01-19T11:34:53.531Z,7.78
2024-01-19T11:37:48.409Z,7.25
2024-01-19T11:40:37.043Z,8.18
2024-01-19T11:43:44.724Z,6.80
2024-01-19T11:46:53.076Z,7.47
2024-01-19T11:49:47.751Z,7.30
2024-01-19T11:52:43.843Z,8.05
2024-01-19T11:55:35.353Z,7.10
2024-01-19T11:58:30.689Z,6.70
2024-01-19T12:01:18.682Z,7.60
2024-01-19T12:04:06.204Z,8.48
2024-01-19T12:07:05.325Z,7.18
2024-01-19T12:10:16.652Z,7.57
2024-01-19T12:13:04.838Z,7.32
2024-01-19T12:15:54.188Z,8.10
2024-01-19T12:18:41.830Z,7.43
2024-01-19T12:21:29.354Z,7.40
2024-01-19T12:24:20.750Z,7.53
2024-01-19T12:29:55.202Z,8.00
2024-01-19T12:32:47.240Z,6.55
2024-01-19T12:35:34.799Z,7.60
2024-01-19T12:38:24.746Z,8.07
2024-01-19T12:41:20.538Z,8.70
2024-01-19T12:44:08.166Z,7.50
2024-01-19T12:46:59.934Z,7.40
2024-01-19T12:49:53.731Z,7.50
2024-01-19T12:52:48.660Z,7.35
2024-01-19T12:55:36.083Z,7.25
2024-01-19T12:58:23.833Z,7.45
2024-01-19T13:01:11.886Z,7.45
2024-01-19T13:03:59.941Z,6.90
2024-01-19T13:06:47.660Z,8.05
2024-01-19T13:09:34.976Z,8.05
2024-01-19T13:12:22.628Z,7.72
2024-01-19T13:15:11.827Z,8.50
2024-01-19T13:18:23.544Z,6.95
2024-01-19T13:21:16.337Z,7.35
2024-01-19T13:24:04.014Z,7.70
2024-01-19T13:27:04.647Z,7.50
2024-01-19T13:29:51.901Z,7.47
2024-01-19T13:32:40.004Z,8.15
2024-01-19T13:35:28.040Z,8.95
2024-01-19T13:38:15.382Z,7.43
2024-01-19T13:41:02.938Z,7.35
2024-01-19T13:43:51.320Z,7.57
2024-01-19T13:46:39.261Z,7.30
2024-01-19T13:49:26.621Z,7.47
2024-01-19T13:52:13.962Z,7.50
2024-01-19T13:55:01.273Z,7.32
2024-01-19T13:57:48.606Z,7.40
2024-01-19T14:00:39.382Z,8.20
2024-01-19T14:03:26.836Z,7.40
2024-01-19T14:06:16.496Z,7.28
2024-01-19T14:09:04.397Z,7.70
2024-01-19T14:11:52.620Z,8.20
2024-01-19T14:14:41.575Z,7.70
2024-01-19T14:17:28.831Z,6.55
2024-01-19T14:20:17.344Z,7.65
2024-01-19T14:23:08.334Z,8.35
2024-01-19T14:25:55.596Z,7.28
2024-01-19T14:28:43.839Z,7.70
2024-01-19T14:31:33.478Z,6.68
2024-01-19T14:34:21.342Z,8.38
2024-01-19T14:37:19.249Z,8.18
2024-01-19T14:40:08.544Z,8.55
2024-01-19T14:43:00.892Z,7.45
2024-01-19T14:45:48.903Z,7.80
2024-01-19T14:48:37.868Z,9.00
2024-01-19T14:51:25.602Z,8.88
2024-01-19T14:54:16.384Z,8.90
2024-01-19T14:57:04.628Z,8.75
2024-01-19T14:59:51.847Z,10.35
2024-01-19T15:02:39.617Z,10.07
2024-01-19T15:05:27.021Z,9.90
2024-01-19T15:08:14.264Z,10.10
2024-01-19T15:11:02.291Z,10.93
2024-01-19T15:13:51.062Z,11.07
2024-01-19T15:16:42.656Z,12.82
2024-01-19T15:19:30.148Z,9.90
2024-01-19T15:22:17.822Z,11.23
2024-01-19T15:25:08.698Z,11.02
2024-01-19T15:27:57.214Z,12.15
2024-01-19T15:30:44.955Z,10.73
2024-01-19T15:33:32.482Z,12.93
2024-01-19T15:36:20.139Z,14.23
2024-01-19T15:39:08.085Z,14.10
2024-01-19T15:41:55.273Z,14.35
2024-01-19T15:44:43.613Z,13.48
2024-01-19T15:47:32.613Z,12.95
2024-01-19T15:50:22.385Z,13.55
2024-01-19T15:53:09.750Z,16.20
2024-01-19T15:55:59.340Z,14.38
2024-01-19T15:58:47.811Z,15.73
2024-01-19T16:01:41.256Z,15.25
2024-01-19T16:04:30.196Z,15.90
2024-01-19T16:07:18.334Z,17.33
2024-01-19T16:10:07.571Z,15.20
2024-01-19T16:12:55.711Z,17.63
2024-01-19T16:15:44.352Z,16.50
2024-01-19T16:18:35.081Z,15.40
2024-01-19T16:21:27.935Z,17.35
2024-01-19T16:24:18.489Z,16.02
2024-01-19T16:27:06.176Z,16.25
2024-01-19T16:29:54.561Z,17.42
2024-01-19T16:32:47.836Z,15.98
2024-01-19T16:35:42.054Z,15.25
2024-01-19T16:38:30.753Z,16.83
2024-01-19T16:41:20.896Z,16.05
2024-01-19T16:44:10.086Z,18.00
2024-01-19T16:46:57.982Z,18.20
2024-01-19T16:49:46.088Z,17.08
2024-01-19T16:52:33.304Z,17.05
2024-01-19T16:55:21.817Z,15.93
2024-01-19T16:58:10.884Z,20.73
2024-01-19T17:00:58.736Z,16.38
2024-01-19T17:03:48.586Z,19.10
2024-01-19T17:06:37.046Z,17.17
2024-01-19T17:09:27.413Z,18.95
2024-01-19T17:12:16.298Z,17.73
2024-01-19T17:15:03.650Z,18.00
2024-01-19T17:17:51.376Z,15.27
2024-01-19T17:20:41.817Z,12.85
2024-01-19T17:23:30.017Z,15.18
2024-01-19T17:26:17.407Z,16.60
2024-01-19T17:29:04.964Z,16.98
2024-01-19T17:31:52.531Z,16.05
2024-01-19T17:34:41.928Z,16.55
2024-01-19T17:37:30.226Z,18.40
2024-01-19T17:40:22.610Z,18.50
2024-01-19T17:43:11.923Z,16.58
2024-01-19T17:45:59.465Z,17.27
2024-01-19T17:48:46.815Z,18.92
2024-01-19T17:51:34.040Z,16.70
2024-01-19T17:54:22.838Z,16.40
2024-01-19T17:57:10.307Z,18.55
2024-01-19T17:59:57.508Z,18.10
2024-01-19T18:02:45.613Z,16.75
2024-01-19T18:05:33.055Z,17.05
2024-01-19T18:08:20.528Z,15.63
2024-01-19T18:11:07.923Z,15.85
2024-01-19T18:13:57.272Z,17.55
2024-01-19T18:16:45.020Z,16.30
2024-01-19T18:19:33.545Z,15.10
2024-01-19T18:22:21.390Z,18.75
2024-01-19T18:25:17.600Z,17.60
2024-01-19T18:28:07.230Z,18.45
2024-01-19T18:30:56.148Z,16.65
2024-01-19T18:33:45.103Z,15.80
2024-01-19T18:36:33.495Z,16.92
2024-01-19T18:39:20.848Z,15.63
2024-01-19T18:42:09.639Z,16.38
2024-01-19T18:44:58.075Z,17.00
2024-01-19T18:47:51.563Z,18.80
2024-01-19T18:50:38.913Z,19.13
2024-01-19T18:53:26.646Z,19.65
2024-01-19T18:56:28.687Z,17.25
2024-01-19T18:59:17.224Z,17.15
2024-01-19T19:02:06.570Z,18.70
2024-01-19T19:04:54.028Z,18.85
2024-01-19T19:07:41.385Z,21.38
2024-01-19T19:10:29.212Z,19.65
2024-01-19T19:13:17.621Z,19.38
2024-01-19T19:16:18.028Z,19.48
2024-01-19T19:19:09.951Z,20.67
2024-01-19T19:21:59.017Z,26.88
2024-01-19T19:24:46.353Z,19.45
2024-01-19T19:27:34.934Z,18.80
2024-01-19T19:30:25.568Z,17.75
2024-01-19T19:33:12.902Z,21.02
2024-01-19T19:36:03.854Z,19.00
2024-01-19T19:38:51.439Z,21.05
2024-01-19T19:41:39.331Z,25.40
2024-01-19T19:44:29.132Z,24.60
2024-01-19T19:47:19.091Z,23.25
2024-01-19T19:50:08.279Z,20.00
2024-01-19T19:52:55.614Z,24.50
2024-01-19T19:55:48.373Z,24.95
2024-01-19T19:58:41.855Z,24.95
2024-01-19T20:01:30.053Z,22.50
2024-01-19T20:04:17.428Z,27.15
2024-01-19T20:07:11.808Z,22.27
2024-01-19T20:09:59.424Z,24.20
2024-01-19T20:12:50.656Z,20.50
2024-01-19T20:15:38.421Z,19.73
2024-01-19T20:18:29.367Z,23.27
2024-01-19T20:21:26.788Z,20.38
2024-01-19T20:24:16.433Z,25.20
2024-01-19T20:27:04.949Z,29.35
2024-01-19T20:29:52.944Z,26.27
2024-01-19T20:32:47.102Z,25.88
2024-01-19T20:38:26.471Z,25.25
2024-01-19T20:41:15.983Z,31.70
2024-01-19T20:44:04.658Z,28.08
2024-01-19T20:46:52.064Z,25.50
2024-01-19T20:49:40.833Z,27.27
2024-01-19T20:52:28.244Z,25.63
2024-01-19T20:55:25.055Z,32.97
2024-01-19T20:58:12.807Z,36.88
2024-01-19T21:01:05.259Z,26.95
2024-01-19T21:03:53.999Z,32.33
2024-01-19T21:06:41.608Z,30.73
2024-01-19T21:09:31.393Z,27.45
2024-01-19T21:12:21.165Z,30.30
2024-01-19T21:15:18.138Z,32.38
2024-01-19T21:18:08.973Z,29.00
2024-01-19T21:21:00.264Z,35.38
2024-01-19T21:23:48.896Z,24.52
2024-01-19T21:26:40.892Z,27.63
2024-01-19T21:29:30.036Z,24.67
2024-01-19T21:32:19.729Z,24.30
2024-01-19T21:35:17.753Z,28.63
2024-01-19T21:38:05.008Z,31.17
2024-01-19T21:40:53.809Z,24.75
2024-01-19T21:43:42.699Z,32.33
2024-01-19T21:46:31.027Z,31.67
2024-01-19T21:49:21.118Z,27.67
2024-01-19T21:52:09.947Z,26.80
2024-01-19T21:55:01.442Z,29.42
2024-01-19T21:57:48.701Z,27.60
2024-01-19T22:00:37.701Z,21.33
2024-01-19T22:03:26.921Z,27.13
2024-01-19T22:06:26.198Z,32.20
2024-01-19T22:09:15.606Z,23.58
2024-01-19T22:12:06.618Z,35.97
2024-01-19T22:14:58.567Z,26.75
2024-01-19T22:17:46.497Z,27.67
2024-01-19T22:20:34.839Z,25.60
2024-01-19T22:23:30.145Z,22.45
2024-01-19T22:26:17.417Z,26.50
2024-01-19T22:29:04.795Z,30.02
2024-01-19T22:31:54.933Z,33.60
2024-01-19T22:34:45.054Z,21.75
2024-01-19T22:37:35.964Z,24.52
2024-01-19T22:40:24.822Z,28.20
2024-01-19T22:43:18.054Z,23.55
2024-01-19T22:46:08.485Z,20.88
2024-01-19T22:48:56.748Z,28.15
2024-01-19T22:51:46.625Z,26.48
2024-01-19T22:54:35.067Z,20.42
2024-01-19T22:57:25.499Z,23.27
2024-01-19T23:00:16.385Z,29.42
2024-01-19T23:03:04.196Z,23.23
2024-01-19T23:05:51.968Z,22.20
2024-01-19T23:08:39.414Z,27.63
2024-01-19T23:11:29.152Z,27.25
2024-01-19T23:14:18.073Z,22.08
2024-01-19T23:17:06.455Z,19.40
2024-01-19T23:19:55.019Z,21.58
2024-01-19T23:22:42.651Z,21.63
2024-01-19T23:25:37.379Z,25.30
2024-01-19T23:28:25.379Z,29.35
2024-01-19T23:31:13.748Z,22.08
2024-01-19T23:34:01.078Z,18.30
2024-01-19T23:36:49.574Z,29.48
2024-01-19T23:39:39.306Z,29.70
2024-01-19T23:42:26.957Z,24.50
2024-01-19T23:45:14.540Z,19.85
2024-01-19T23:48:06.974Z,27.25
2024-01-19T23:50:54.357Z,19.92
2024-01-19T23:53:41.816Z,31.00
2024-01-19T23:56:34.778Z,24.33
2024-01-19T23:59:21.999Z,26.13
